createdAt,value
2015-12-21T00:00:01.257Z,60.1
2015-12-21T00:00:13.616Z,60
2015-12-21T00:00:25.975Z,60
2015-12-21T00:00:38.350Z,60.29
2015-12-21T00:00:50.556Z,60.19
2015-12-21T00:01:03.478Z,60.19
2015-12-21T00:01:15.916Z,60.29
2015-12-21T00:01:28.369Z,60.29
2015-12-21T00:01:41.079Z,60.29
2015-12-21T00:01:53.472Z,60.38
2015-12-21T00:02:05.862Z,60.38
2015-12-21T00:02:18.222Z,60.29
2015-12-21T00:02:30.597Z,60.48
2015-12-21T00:02:42.956Z,60.1
2015-12-21T00:02:55.303Z,60.1
2015-12-21T00:03:07.631Z,60.1
2015-12-21T00:03:19.818Z,60.19
2015-12-21T00:03:32.193Z,60.1
2015-12-21T00:03:44.537Z,60.38
2015-12-21T00:03:56.898Z,60.38
2015-12-21T00:04:09.258Z,59.91
2015-12-21T00:04:20.898Z,59.91
2015-12-21T00:04:33.258Z,60.48
2015-12-21T00:04:45.617Z,60
2015-12-21T00:04:57.981Z,60.19
2015-12-21T00:05:10.340Z,59.91
2015-12-21T00:05:22.699Z,59.91
2015-12-21T00:05:35.074Z,60.19
2015-12-21T00:05:47.449Z,60.29
2015-12-21T00:05:59.826Z,60.1
2015-12-21T00:06:12.201Z,60.19
2015-12-21T00:06:24.576Z,60.19
2015-12-21T00:06:36.967Z,60
2015-12-21T00:06:49.358Z,60
2015-12-21T00:07:01.751Z,59.81
2015-12-21T00:07:14.157Z,60
2015-12-21T00:07:26.532Z,59.81
2015-12-21T00:07:38.907Z,60.29
2015-12-21T00:07:51.298Z,60.1
2015-12-21T00:08:03.659Z,60.1
2015-12-21T00:08:16.019Z,60.1
2015-12-21T00:08:28.378Z,59.91
2015-12-21T00:08:40.738Z,59.91
2015-12-21T00:08:53.113Z,60
2015-12-21T00:09:05.475Z,60.48
2015-12-21T00:09:17.834Z,60.48
2015-12-21T00:09:30.194Z,60.38
2015-12-21T00:09:42.553Z,60.29
2015-12-21T00:09:55.053Z,60.38
2015-12-21T00:10:07.415Z,60.38
2015-12-21T00:10:19.759Z,60.38
2015-12-21T00:10:32.119Z,60.29
2015-12-21T00:10:44.478Z,60.48
2015-12-21T00:10:56.869Z,60.29
2015-12-21T00:11:09.247Z,60.29
2015-12-21T00:11:21.622Z,60.48
2015-12-21T00:11:33.997Z,60.38
2015-12-21T00:11:46.372Z,60.1
2015-12-21T00:11:58.762Z,59.91
2015-12-21T00:12:11.156Z,60
2015-12-21T00:12:23.531Z,60
2015-12-21T00:12:35.921Z,60
2015-12-21T00:12:48.312Z,60.19
2015-12-21T00:13:00.546Z,60.19
2015-12-21T00:13:12.955Z,60.29
2015-12-21T00:13:25.330Z,59.72
2015-12-21T00:13:37.689Z,59.34
2015-12-21T00:13:50.033Z,59.34
2015-12-21T00:14:02.423Z,59.34
2015-12-21T00:14:14.786Z,59.34
2015-12-21T00:14:27.145Z,59.44
2015-12-21T00:14:39.505Z,59.63
2015-12-21T00:14:51.848Z,59.53
2015-12-21T00:15:04.208Z,59.53
2015-12-21T00:15:16.586Z,59.34
2015-12-21T00:15:28.945Z,59.16
2015-12-21T00:15:41.304Z,59.34
2015-12-21T00:15:53.664Z,59.06
2015-12-21T00:16:06.023Z,59.06
2015-12-21T00:16:18.386Z,58.78
2015-12-21T00:16:30.761Z,58.87
2015-12-21T00:16:43.136Z,58.78
2015-12-21T00:16:55.511Z,58.4
2015-12-21T00:17:07.886Z,58.11
2015-12-21T00:17:20.279Z,58.11
2015-12-21T00:17:32.670Z,58.21
2015-12-21T00:17:45.045Z,58.3
2015-12-21T00:17:57.435Z,58.3
2015-12-21T00:18:09.826Z,58.21
2015-12-21T00:18:22.235Z,58.11
2015-12-21T00:18:34.626Z,58.11
2015-12-21T00:18:47.048Z,58.11
2015-12-21T00:18:59.407Z,58.02
2015-12-21T00:19:11.767Z,58.21
2015-12-21T00:19:24.112Z,58.21
2015-12-21T00:19:36.519Z,57.92
2015-12-21T00:19:48.878Z,57.73
2015-12-21T00:20:01.237Z,57.83
2015-12-21T00:20:13.597Z,57.73
2015-12-21T00:20:25.959Z,57.83
2015-12-21T00:20:38.318Z,57.83
2015-12-21T00:20:50.693Z,57.92
2015-12-21T00:21:03.053Z,57.83
2015-12-21T00:21:14.693Z,57.92
2015-12-21T00:21:27.056Z,57.45
2015-12-21T00:21:39.400Z,57.64
2015-12-21T00:21:51.775Z,57.45
2015-12-21T00:22:04.150Z,57.54
2015-12-21T00:22:16.525Z,57.64
2015-12-21T00:22:28.902Z,57.64
2015-12-21T00:22:41.277Z,57.45
2015-12-21T00:22:53.667Z,57.64
2015-12-21T00:23:06.058Z,57.73
2015-12-21T00:23:18.448Z,57.07
2015-12-21T00:23:30.842Z,57.17
2015-12-21T00:23:43.233Z,57.26
2015-12-21T00:23:55.623Z,57.45
2015-12-21T00:24:08.014Z,57.45
2015-12-21T00:24:20.389Z,57.35
2015-12-21T00:24:32.751Z,57.35
2015-12-21T00:24:45.111Z,57.26
2015-12-21T00:24:57.454Z,57.26
2015-12-21T00:25:09.814Z,57.17
2015-12-21T00:25:22.158Z,57.26
2015-12-21T00:25:34.520Z,57.26
2015-12-21T00:25:46.879Z,57.17
2015-12-21T00:25:59.254Z,57.54
2015-12-21T00:26:11.614Z,57.54
2015-12-21T00:26:23.991Z,57.54
2015-12-21T00:26:36.334Z,57.17
2015-12-21T00:26:48.694Z,57.26
2015-12-21T00:27:01.069Z,57.26
2015-12-21T00:27:13.428Z,57.17
2015-12-21T00:27:25.087Z,57.17
2015-12-21T00:27:37.462Z,57.07
2015-12-21T00:27:49.822Z,57.26
2015-12-21T00:28:02.212Z,57.35
2015-12-21T00:28:14.603Z,57.07
2015-12-21T00:28:26.981Z,57.07
2015-12-21T00:28:39.372Z,57.07
2015-12-21T00:28:51.762Z,57.07
2015-12-21T00:29:04.169Z,57.07
2015-12-21T00:29:16.528Z,57.17
2015-12-21T00:29:28.922Z,57.07
2015-12-21T00:29:41.281Z,57.07
2015-12-21T00:29:53.640Z,57.17
2015-12-21T00:30:06.015Z,56.98
2015-12-21T00:30:18.375Z,56.98
2015-12-21T00:30:30.720Z,57.35
2015-12-21T00:30:43.080Z,56.98
2015-12-21T00:30:55.439Z,57.26
2015-12-21T00:31:07.799Z,57.26
2015-12-21T00:31:20.158Z,56.98
2015-12-21T00:31:32.520Z,57.26
2015-12-21T00:31:44.880Z,56.88
2015-12-21T00:31:57.255Z,56.98
2015-12-21T00:32:09.614Z,57.07
2015-12-21T00:32:21.270Z,57.17
2015-12-21T00:32:33.633Z,56.98
2015-12-21T00:32:46.023Z,56.88
2015-12-21T00:32:58.414Z,57.07
2015-12-21T00:33:10.805Z,57.07
2015-12-21T00:33:23.195Z,57.17
2015-12-21T00:33:35.573Z,57.07
2015-12-21T00:33:47.964Z,56.79
2015-12-21T00:34:00.370Z,56.7
2015-12-21T00:34:12.745Z,56.7
2015-12-21T00:34:25.151Z,56.51
2015-12-21T00:34:37.513Z,56.7
2015-12-21T00:34:49.856Z,56.98
2015-12-21T00:35:02.231Z,56.88
2015-12-21T00:35:14.591Z,56.88
2015-12-21T00:35:26.950Z,56.6
2015-12-21T00:35:39.313Z,56.6
2015-12-21T00:35:51.672Z,56.6
2015-12-21T00:36:04.078Z,56.6
2015-12-21T00:36:16.422Z,56.6
2015-12-21T00:36:28.797Z,56.6
2015-12-21T00:36:41.144Z,56.51
2015-12-21T00:36:53.503Z,56.98
2015-12-21T00:37:05.862Z,56.79
2015-12-21T00:37:18.222Z,56.79
2015-12-21T00:37:30.581Z,56.7
2015-12-21T00:37:42.959Z,56.88
2015-12-21T00:37:55.334Z,57.35
2015-12-21T00:38:07.709Z,57.07
2015-12-21T00:38:20.084Z,57.17
2015-12-21T00:38:32.490Z,57.17
2015-12-21T00:38:44.883Z,57.17
2015-12-21T00:38:57.274Z,57.07
2015-12-21T00:39:09.664Z,56.98
2015-12-21T00:39:22.071Z,57.17
2015-12-21T00:39:34.446Z,56.98
2015-12-21T00:39:46.839Z,57.07
2015-12-21T00:39:59.245Z,57.35
2015-12-21T00:40:11.605Z,57.26
2015-12-21T00:40:23.949Z,56.79
2015-12-21T00:40:36.308Z,56.88
2015-12-21T00:40:48.670Z,57.26
2015-12-21T00:41:01.045Z,57.07
2015-12-21T00:41:13.405Z,56.98
2015-12-21T00:41:25.748Z,56.88
2015-12-21T00:41:38.108Z,56.98
2015-12-21T00:41:50.470Z,57.35
2015-12-21T00:42:02.830Z,56.98
2015-12-21T00:42:15.205Z,57.17
2015-12-21T00:42:27.564Z,56.79
2015-12-21T00:42:39.923Z,57.17
2015-12-21T00:42:52.300Z,57.35
2015-12-21T00:43:04.660Z,56.98
2015-12-21T00:43:17.035Z,56.88
2015-12-21T00:43:29.410Z,57.07
2015-12-21T00:43:41.769Z,57.07
2015-12-21T00:43:54.163Z,57.17
2015-12-21T00:44:06.553Z,57.35
2015-12-21T00:44:18.944Z,57.35
2015-12-21T00:44:31.335Z,57.26
2015-12-21T00:44:43.741Z,57.17
2015-12-21T00:44:56.133Z,57.54
2015-12-21T00:45:08.540Z,57.45
2015-12-21T00:45:20.930Z,57.45
2015-12-21T00:45:33.290Z,57.64
2015-12-21T00:45:45.633Z,57.92
2015-12-21T00:45:57.981Z,58.02
2015-12-21T00:46:10.341Z,57.64
2015-12-21T00:46:22.684Z,57.73
2015-12-21T00:46:35.028Z,57.35
2015-12-21T00:46:47.372Z,57.45
2015-12-21T00:46:59.749Z,57.73
2015-12-21T00:47:12.108Z,57.83
2015-12-21T00:47:24.468Z,57.54
2015-12-21T00:47:36.827Z,57.73
2015-12-21T00:47:49.186Z,57.54
2015-12-21T00:48:01.549Z,57.64
2015-12-21T00:48:13.908Z,57.54
2015-12-21T00:48:26.283Z,57.45
2015-12-21T00:48:38.658Z,57.45
2015-12-21T00:48:51.017Z,57.45
2015-12-21T00:49:03.395Z,57.35
2015-12-21T00:49:15.786Z,57.64
2015-12-21T00:49:28.161Z,57.35
2015-12-21T00:49:40.552Z,57.64
2015-12-21T00:49:52.942Z,57.54
2015-12-21T00:50:05.336Z,57.54
2015-12-21T00:50:17.023Z,57.54
2015-12-21T00:50:29.414Z,57.45
2015-12-21T00:50:41.805Z,57.54
2015-12-21T00:50:54.164Z,58.02
2015-12-21T00:51:06.542Z,57.92
2015-12-21T00:51:18.901Z,57.92
2015-12-21T00:51:31.245Z,57.73
2015-12-21T00:51:43.620Z,57.73
2015-12-21T00:51:55.980Z,57.73
2015-12-21T00:52:08.341Z,57.64
2015-12-21T00:52:19.997Z,57.83
2015-12-21T00:52:32.357Z,57.73
2015-12-21T00:52:44.716Z,57.73
2015-12-21T00:52:57.075Z,58.02
2015-12-21T00:53:09.438Z,57.83
2015-12-21T00:53:21.797Z,57.83
2015-12-21T00:53:34.156Z,58.21
2015-12-21T00:53:46.531Z,57.83
2015-12-21T00:53:58.906Z,58.11
2015-12-21T00:54:11.283Z,57.92
2015-12-21T00:54:23.658Z,57.92
2015-12-21T00:54:36.049Z,57.64
2015-12-21T00:54:48.440Z,58.21
2015-12-21T00:55:00.830Z,58.21
2015-12-21T00:55:13.225Z,58.3
2015-12-21T00:55:25.631Z,58.02
2015-12-21T00:55:38.022Z,58.21
2015-12-21T00:55:50.397Z,58.11
2015-12-21T00:56:02.787Z,58.02
2015-12-21T00:56:15.180Z,58.21
2015-12-21T00:56:27.524Z,58.11
2015-12-21T00:56:39.883Z,58.11
2015-12-21T00:56:52.258Z,58.21
2015-12-21T00:57:04.618Z,58.21
2015-12-21T00:57:16.980Z,58.02
2015-12-21T00:57:29.339Z,58.11
2015-12-21T00:57:41.699Z,58.21
2015-12-21T00:57:53.339Z,58.3
2015-12-21T00:58:05.714Z,58.02
2015-12-21T00:58:18.061Z,58.11
2015-12-21T00:58:30.420Z,58.18
2015-12-21T00:58:42.764Z,58.11
2015-12-21T00:58:55.139Z,57.99
2015-12-21T00:59:07.514Z,58.3
2015-12-21T00:59:19.892Z,58.09
2015-12-21T00:59:32.252Z,58.09
2015-12-21T00:59:44.627Z,58.11
2015-12-21T00:59:57.002Z,58.3
2015-12-21T01:00:09.392Z,58.28
2015-12-21T01:00:21.770Z,58.09
2015-12-21T01:00:34.208Z,57.99
2015-12-21T01:00:46.442Z,58.09
2015-12-21T01:00:58.848Z,58.09
2015-12-21T01:01:11.239Z,58.18
2015-12-21T01:01:23.632Z,58.09
2015-12-21T01:01:36.038Z,58.02
2015-12-21T01:01:48.397Z,57.99
2015-12-21T01:02:00.757Z,58.09
2015-12-21T01:02:13.116Z,57.99
2015-12-21T01:02:25.478Z,58.47
2015-12-21T01:02:37.838Z,58.75
2015-12-21T01:02:50.197Z,58.75
2015-12-21T01:03:02.556Z,58.94
2015-12-21T01:03:14.931Z,58.65
2015-12-21T01:03:27.277Z,58.56
2015-12-21T01:03:39.652Z,57.99
2015-12-21T01:03:52.012Z,58.09
2015-12-21T01:04:04.371Z,58.28
2015-12-21T01:04:16.746Z,58.18
2015-12-21T01:04:29.108Z,58.09
2015-12-21T01:04:41.468Z,58.09
2015-12-21T01:04:53.858Z,58.18
2015-12-21T01:05:06.233Z,57.8
2015-12-21T01:05:18.608Z,57.8
2015-12-21T01:05:30.986Z,57.9
2015-12-21T01:05:43.377Z,57.9
2015-12-21T01:05:55.768Z,57.9
2015-12-21T01:06:08.158Z,57.9
2015-12-21T01:06:20.533Z,57.9
2015-12-21T01:06:32.771Z,57.71
2015-12-21T01:06:45.161Z,57.8
2015-12-21T01:06:56.849Z,57.8
2015-12-21T01:07:09.208Z,57.8
2015-12-21T01:07:21.567Z,57.9
2015-12-21T01:07:33.930Z,57.9
2015-12-21T01:07:46.274Z,57.9
2015-12-21T01:07:58.649Z,57.71
2015-12-21T01:08:11.024Z,57.71
2015-12-21T01:08:23.383Z,57.8
2015-12-21T01:08:35.745Z,57.99
2015-12-21T01:08:48.105Z,57.8
2015-12-21T01:09:00.464Z,57.52
2015-12-21T01:09:12.823Z,57.61
2015-12-21T01:09:25.167Z,57.61
2015-12-21T01:09:37.529Z,57.52
2015-12-21T01:09:49.904Z,57.42
2015-12-21T01:10:02.279Z,57.52
2015-12-21T01:10:14.654Z,57.33
2015-12-21T01:10:27.029Z,57.99
2015-12-21T01:10:39.407Z,57.9
2015-12-21T01:10:51.797Z,57.9
2015-12-21T01:11:04.172Z,57.8
2015-12-21T01:11:16.563Z,58.09
2015-12-21T01:11:28.938Z,57.71
2015-12-21T01:11:41.331Z,57.61
2015-12-21T01:11:53.675Z,57.71
2015-12-21T01:12:06.035Z,57.71
2015-12-21T01:12:18.394Z,57.71
2015-12-21T01:12:30.753Z,57.8
2015-12-21T01:12:42.958Z,57.8
2015-12-21T01:12:55.318Z,57.8
2015-12-21T01:13:07.677Z,57.9
2015-12-21T01:13:20.037Z,58.18
2015-12-21T01:13:32.396Z,58.18
2015-12-21T01:13:44.758Z,58.18
2015-12-21T01:13:57.133Z,58.18
2015-12-21T01:14:09.508Z,57.9
2015-12-21T01:14:21.852Z,57.9
2015-12-21T01:14:34.227Z,57.61
2015-12-21T01:14:46.605Z,57.61
2015-12-21T01:14:58.980Z,57.14
2015-12-21T01:15:11.339Z,57.14
2015-12-21T01:15:23.714Z,57.23
2015-12-21T01:15:36.089Z,57.14
2015-12-21T01:15:48.482Z,57.04
2015-12-21T01:16:00.873Z,57.04
2015-12-21T01:16:13.263Z,57.33
2015-12-21T01:16:25.654Z,57.42
2015-12-21T01:16:38.029Z,57.71
2015-12-21T01:16:50.424Z,57.33
2015-12-21T01:17:02.814Z,57.61
2015-12-21T01:17:15.174Z,57.52
2015-12-21T01:17:27.533Z,57.42
2015-12-21T01:17:39.877Z,57.61
2015-12-21T01:17:52.238Z,57.52
2015-12-21T01:18:04.597Z,57.33
2015-12-21T01:18:16.972Z,57.71
2015-12-21T01:18:29.332Z,57.04
2015-12-21T01:18:41.691Z,56.95
2015-12-21T01:18:54.069Z,56.95
2015-12-21T01:19:06.413Z,56.85
2015-12-21T01:19:18.772Z,56.67
2015-12-21T01:19:30.413Z,56.76
2015-12-21T01:19:42.772Z,56.48
2015-12-21T01:19:55.149Z,56.57
2015-12-21T01:20:07.540Z,56.57
2015-12-21T01:20:19.915Z,57.04
2015-12-21T01:20:32.274Z,56.76
2015-12-21T01:20:44.649Z,56.85
2015-12-21T01:20:57.043Z,57.23
2015-12-21T01:21:09.434Z,57.14
2015-12-21T01:21:21.809Z,57.23
2015-12-21T01:21:34.168Z,57.42
2015-12-21T01:21:46.512Z,57.23
2015-12-21T01:22:27.578Z,57.71
2015-12-21T01:22:39.938Z,57.9
2015-12-21T01:22:52.299Z,57.9
2015-12-21T01:23:04.705Z,57.8
2015-12-21T01:23:17.049Z,57.61
2015-12-21T01:23:29.408Z,57.71
2015-12-21T01:23:41.752Z,57.9
2015-12-21T01:23:54.114Z,57.99
2015-12-21T01:24:06.474Z,57.61
2015-12-21T01:24:18.833Z,57.99
2015-12-21T01:24:31.208Z,58.28
2015-12-21T01:24:43.583Z,58.09
2015-12-21T01:24:55.961Z,58.18
2015-12-21T01:25:08.336Z,58.09
2015-12-21T01:25:20.711Z,57.99
2015-12-21T01:25:33.102Z,57.99
2015-12-21T01:25:45.477Z,58.47
2015-12-21T01:25:57.151Z,58.47
2015-12-21T01:26:09.526Z,58.84
2015-12-21T01:26:21.932Z,58.65
2015-12-21T01:26:34.323Z,58.84
2015-12-21T01:26:46.698Z,58.75
2015-12-21T01:26:59.060Z,58.75
2015-12-21T01:27:11.419Z,58.84
2015-12-21T01:27:23.779Z,59.22
2015-12-21T01:27:36.122Z,59.22
2015-12-21T01:27:48.482Z,59.12
2015-12-21T01:28:00.937Z,58.94
2015-12-21T01:28:13.312Z,59.22
2015-12-21T01:28:25.671Z,59.03
2015-12-21T01:28:38.031Z,58.65
2015-12-21T01:28:50.390Z,58.65
2015-12-21T01:29:02.753Z,58.84
2015-12-21T01:29:15.113Z,58.84
2015-12-21T01:29:27.472Z,58.94
2015-12-21T01:29:39.847Z,59.03
2015-12-21T01:29:52.222Z,59.03
2015-12-21T01:30:04.677Z,59.03
2015-12-21T01:30:17.052Z,59.12
2015-12-21T01:30:29.412Z,59.12
2015-12-21T01:30:41.802Z,59.03
2015-12-21T01:30:54.193Z,59.31
2015-12-21T01:31:06.571Z,59.41
2015-12-21T01:31:18.962Z,59.31
2015-12-21T01:31:31.321Z,59.31
2015-12-21T01:31:43.696Z,59.31
2015-12-21T01:31:56.040Z,59.31
2015-12-21T01:32:08.418Z,59.41
2015-12-21T01:32:20.761Z,59.41
2015-12-21T01:32:33.105Z,59.12
2015-12-21T01:32:45.465Z,59.22
2015-12-21T01:32:57.824Z,59.12
2015-12-21T01:33:10.186Z,58.94
2015-12-21T01:33:22.561Z,58.75
2015-12-21T01:33:34.921Z,58.75
2015-12-21T01:33:47.264Z,58.84
2015-12-21T01:33:59.624Z,58.84
2015-12-21T01:34:11.986Z,58.84
2015-12-21T01:34:24.361Z,58.75
2015-12-21T01:34:36.736Z,58.84
2015-12-21T01:34:49.111Z,59.03
2015-12-21T01:35:01.471Z,59.22
2015-12-21T01:35:13.144Z,59.03
2015-12-21T01:35:25.519Z,58.94
2015-12-21T01:35:37.910Z,59.12
2015-12-21T01:35:50.301Z,59.03
2015-12-21T01:36:02.691Z,59.22
2015-12-21T01:36:15.085Z,59.12
2015-12-21T01:36:27.460Z,59.31
2015-12-21T01:36:39.866Z,59.31
2015-12-21T01:36:52.226Z,59.22
2015-12-21T01:37:04.601Z,59.22
2015-12-21T01:37:16.962Z,59.31
2015-12-21T01:37:29.321Z,59.31
2015-12-21T01:37:41.681Z,59.03
2015-12-21T01:37:54.056Z,59.03
2015-12-21T01:38:06.399Z,59.03
2015-12-21T01:38:18.762Z,59.03
2015-12-21T01:38:31.121Z,59.03
2015-12-21T01:38:43.481Z,59.12
2015-12-21T01:38:55.840Z,59.12
2015-12-21T01:39:08.199Z,59.12
2015-12-21T01:39:20.563Z,59.03
2015-12-21T01:39:32.922Z,59.03
2015-12-21T01:39:45.297Z,59.12
2015-12-21T01:39:57.672Z,59.12
2015-12-21T01:40:10.047Z,59.03
2015-12-21T01:40:22.408Z,59.31
2015-12-21T01:40:34.783Z,59.12
2015-12-21T01:40:47.174Z,59.41
2015-12-21T01:40:59.565Z,59.12
2015-12-21T01:41:11.955Z,59.31
2015-12-21T01:41:24.348Z,59.41
2015-12-21T01:41:36.754Z,59.41
2015-12-21T01:41:49.145Z,59.31
2015-12-21T01:42:01.535Z,59.5
2015-12-21T01:42:13.879Z,59.6
2015-12-21T01:42:26.242Z,59.6
2015-12-21T01:42:38.585Z,59.5
2015-12-21T01:42:50.960Z,59.5
2015-12-21T01:43:03.320Z,59.41
2015-12-21T01:43:15.663Z,59.41
2015-12-21T01:43:28.041Z,59.5
2015-12-21T01:43:40.385Z,59.5
2015-12-21T01:43:52.760Z,59.5
2015-12-21T01:44:05.120Z,59.41
2015-12-21T01:44:17.479Z,59.41
2015-12-21T01:44:29.840Z,59.5
2015-12-21T01:44:42.200Z,59.6
2015-12-21T01:44:54.559Z,59.69
2015-12-21T01:45:06.934Z,59.69
2015-12-21T01:45:19.325Z,59.69
2015-12-21T01:45:31.687Z,59.41
2015-12-21T01:45:44.062Z,59.6
2015-12-21T01:45:56.453Z,59.41
2015-12-21T01:46:08.828Z,59.5
2015-12-21T01:46:21.237Z,59.6
2015-12-21T01:46:33.612Z,59.31
2015-12-21T01:46:46.018Z,59.31
2015-12-21T01:46:58.409Z,59.31
2015-12-21T01:47:10.784Z,59.79
2015-12-21T01:47:23.145Z,59.31
2015-12-21T01:47:35.505Z,59.22
2015-12-21T01:47:47.864Z,59.31
2015-12-21T01:48:00.223Z,59.31
2015-12-21T01:48:12.583Z,59.22
2015-12-21T01:48:24.243Z,59.31
2015-12-21T01:48:36.602Z,59.79
2015-12-21T01:48:48.962Z,59.41
2015-12-21T01:49:01.337Z,59.5
2015-12-21T01:49:13.696Z,59.5
2015-12-21T01:49:26.042Z,59.5
2015-12-21T01:49:38.401Z,59.5
2015-12-21T01:49:50.761Z,59.69
2015-12-21T01:50:03.136Z,59.98
2015-12-21T01:50:15.511Z,59.88
2015-12-21T01:50:27.889Z,59.69
2015-12-21T01:50:40.264Z,59.69
2015-12-21T01:50:52.639Z,59.69
2015-12-21T01:51:05.029Z,59.88
2015-12-21T01:51:17.435Z,59.69
2015-12-21T01:51:29.829Z,59.98
2015-12-21T01:51:42.204Z,59.69
2015-12-21T01:51:54.610Z,59.69
2015-12-21T01:52:06.985Z,59.79
2015-12-21T01:52:19.329Z,59.6
2015-12-21T01:52:31.691Z,59.6
2015-12-21T01:52:44.051Z,59.79
2015-12-21T01:52:56.410Z,59.79
2015-12-21T01:53:08.754Z,59.79
2015-12-21T01:53:21.113Z,59.79
2015-12-21T01:53:33.460Z,60.26
2015-12-21T01:53:45.819Z,59.98
2015-12-21T01:53:58.257Z,59.98
2015-12-21T01:54:10.616Z,59.98
2015-12-21T01:54:22.991Z,60.26
2015-12-21T01:54:35.353Z,59.98
2015-12-21T01:54:47.728Z,60.36
2015-12-21T01:55:00.118Z,60.26
2015-12-21T01:55:12.509Z,60.07
2015-12-21T01:55:24.900Z,60.55
2015-12-21T01:55:37.293Z,60.64
2015-12-21T01:55:49.684Z,60.64
2015-12-21T01:56:02.074Z,60.55
2015-12-21T01:56:14.465Z,60.36
2015-12-21T01:56:26.856Z,60.45
2015-12-21T01:56:39.202Z,60.26
2015-12-21T01:56:51.562Z,60.26
2015-12-21T01:57:03.921Z,60.64
2015-12-21T01:57:16.281Z,60.64
2015-12-21T01:57:28.640Z,60.74
2015-12-21T01:57:41.018Z,60.64
2015-12-21T01:57:53.362Z,60.45
2015-12-21T01:58:05.737Z,60.36
2015-12-21T01:58:18.096Z,60.26
2015-12-21T01:58:30.455Z,60.36
2015-12-21T01:58:42.818Z,60.36
2015-12-21T01:58:55.162Z,60.83
2015-12-21T01:59:07.521Z,60.83
2015-12-21T01:59:19.880Z,60.93
2015-12-21T01:59:32.255Z,60.93
2015-12-21T01:59:44.632Z,60.64
2015-12-21T01:59:57.007Z,60.93
2015-12-21T02:00:09.367Z,60.83
2015-12-21T02:00:21.757Z,60.93
2015-12-21T02:00:34.132Z,60.74
2015-12-21T02:00:46.588Z,60.83
2015-12-21T02:00:58.995Z,60.36
2015-12-21T02:01:11.370Z,60.26
2015-12-21T02:01:23.760Z,60.64
2015-12-21T02:01:36.120Z,60.55
2015-12-21T02:01:48.465Z,60.55
2015-12-21T02:02:00.825Z,60.64
2015-12-21T02:02:13.184Z,60.64
2015-12-21T02:02:25.544Z,60.17
2015-12-21T02:02:37.903Z,60.36
2015-12-21T02:02:50.265Z,60.55
2015-12-21T02:03:02.609Z,60.45
2015-12-21T02:03:14.984Z,59.98
2015-12-21T02:03:27.359Z,59.98
2015-12-21T02:03:39.765Z,60.26
2015-12-21T02:03:52.128Z,59.98
2015-12-21T02:04:04.471Z,60.07
2015-12-21T02:04:16.846Z,60.07
2015-12-21T02:04:29.206Z,59.98
2015-12-21T02:04:41.581Z,59.98
2015-12-21T02:04:53.959Z,60.07
2015-12-21T02:05:06.334Z,59.98
2015-12-21T02:05:18.724Z,59.98
2015-12-21T02:05:31.099Z,59.98
2015-12-21T02:05:43.506Z,60.07
2015-12-21T02:05:55.884Z,60.17
2015-12-21T02:06:08.274Z,60.07
2015-12-21T02:06:20.649Z,60.45
2015-12-21T02:06:33.040Z,60.36
2015-12-21T02:06:45.431Z,60.17
2015-12-21T02:06:57.823Z,60.55
2015-12-21T02:07:10.183Z,60.55
2015-12-21T02:07:22.542Z,60.55
2015-12-21T02:07:34.886Z,60.64
2015-12-21T02:07:46.526Z,60.26
2015-12-21T02:07:58.889Z,60.36
2015-12-21T02:08:11.248Z,60.55
2015-12-21T02:08:23.607Z,60.36
2015-12-21T02:08:35.967Z,60.36
2015-12-21T02:08:48.326Z,60.83
2015-12-21T02:09:00.689Z,60.74
2015-12-21T02:09:13.048Z,60.64
2015-12-21T02:09:25.407Z,60.74
2015-12-21T02:09:37.767Z,60.83
2015-12-21T02:09:50.142Z,61.02
2015-12-21T02:10:02.551Z,60.64
2015-12-21T02:10:14.926Z,60.55
2015-12-21T02:10:27.301Z,60.64
2015-12-21T02:10:39.676Z,60.74
2015-12-21T02:10:52.067Z,60.55
2015-12-21T02:11:04.459Z,60.93
2015-12-21T02:11:16.850Z,60.83
2015-12-21T02:11:29.225Z,60.83
2015-12-21T02:11:41.615Z,61.11
2015-12-21T02:11:54.006Z,60.74
2015-12-21T02:12:06.400Z,61.11
2015-12-21T02:12:18.806Z,60.83
2015-12-21T02:12:31.150Z,61.02
2015-12-21T02:12:43.509Z,61.21
2015-12-21T02:12:55.868Z,60.93
2015-12-21T02:13:08.231Z,61.11
2015-12-21T02:13:20.606Z,61.21
2015-12-21T02:13:32.965Z,61.21
2015-12-21T02:13:45.309Z,61.11
2015-12-21T02:13:57.684Z,60.93
2015-12-21T02:14:10.046Z,60.93
2015-12-21T02:14:22.390Z,61.3
2015-12-21T02:14:34.749Z,61.02
2015-12-21T02:14:47.109Z,60.93
2015-12-21T02:14:59.453Z,60.74
2015-12-21T02:15:11.815Z,61.02
2015-12-21T02:15:24.206Z,61.49
2015-12-21T02:15:36.581Z,61.58
2015-12-21T02:15:48.956Z,61.4
2015-12-21T02:16:01.331Z,61.4
2015-12-21T02:16:13.708Z,61.77
2015-12-21T02:16:26.098Z,61.4
2015-12-21T02:16:38.489Z,61.87
2015-12-21T02:16:50.864Z,61.68
2015-12-21T02:17:03.254Z,61.87
2015-12-21T02:17:15.664Z,61.49
2015-12-21T02:17:28.054Z,61.68
2015-12-21T02:17:40.429Z,61.96
2015-12-21T02:17:52.820Z,61.77
2015-12-21T02:18:05.179Z,62.06
2015-12-21T02:18:17.557Z,61.87
2015-12-21T02:18:29.917Z,61.77
2015-12-21T02:18:42.260Z,62.06
2015-12-21T02:18:54.620Z,62.15
2015-12-21T02:19:06.995Z,61.96
2015-12-21T02:19:19.342Z,61.87
2015-12-21T02:19:31.717Z,62.15
2015-12-21T02:19:44.092Z,61.96
2015-12-21T02:19:56.451Z,62.15
2015-12-21T02:20:08.810Z,62.06
2015-12-21T02:20:21.173Z,62.15
2015-12-21T02:20:33.532Z,62.06
2015-12-21T02:20:45.735Z,62.25
2015-12-21T02:20:58.110Z,62.15
2015-12-21T02:21:10.470Z,62.34
2015-12-21T02:21:22.862Z,62.15
2015-12-21T02:21:35.222Z,62.44
2015-12-21T02:21:47.612Z,62.25
2015-12-21T02:22:00.003Z,62.25
2015-12-21T02:22:12.393Z,62.25
2015-12-21T02:22:24.771Z,62.44
2015-12-21T02:22:37.178Z,62.44
2015-12-21T02:22:49.537Z,62.34
2015-12-21T02:23:01.896Z,62.34
2015-12-21T02:23:14.256Z,62.34
2015-12-21T02:23:26.602Z,62.53
2015-12-21T02:23:38.961Z,62.63
2015-12-21T02:23:51.320Z,62.63
2015-12-21T02:24:03.680Z,62.82
2015-12-21T02:24:16.039Z,62.82
2015-12-21T02:24:28.401Z,62.82
2015-12-21T02:24:40.761Z,62.91
2015-12-21T02:24:53.120Z,62.91
2015-12-21T02:25:05.480Z,63.01
2015-12-21T02:25:17.842Z,63.2
2015-12-21T02:25:30.186Z,63.1
2015-12-21T02:25:42.576Z,63.2
2015-12-21T02:25:54.936Z,63.2
2015-12-21T02:26:07.311Z,63.2
2015-12-21T02:26:19.703Z,63.29
2015-12-21T02:26:32.063Z,63.29
2015-12-21T02:26:44.453Z,63.29
2015-12-21T02:26:56.844Z,63.54
2015-12-21T02:27:09.235Z,63.35
2015-12-21T02:27:21.628Z,63.54
2015-12-21T02:27:34.034Z,63.45
2015-12-21T02:27:46.409Z,63.35
2015-12-21T02:27:58.800Z,63.45
2015-12-21T02:28:10.503Z,63.73
2015-12-21T02:28:22.850Z,63.82
2015-12-21T02:28:35.194Z,63.73
2015-12-21T02:28:47.553Z,63.82
2015-12-21T02:28:59.912Z,63.64
2015-12-21T02:29:12.256Z,63.92
2015-12-21T02:29:24.650Z,64.01
2015-12-21T02:29:36.994Z,63.82
2015-12-21T02:29:49.353Z,64.01
2015-12-21T02:30:01.712Z,63.92
2015-12-21T02:30:14.087Z,64.11
2015-12-21T02:30:26.449Z,63.92
2015-12-21T02:30:38.808Z,64.29
2015-12-21T02:30:51.167Z,64.01
2015-12-21T02:31:03.511Z,64.11
2015-12-21T02:31:15.886Z,64.01
2015-12-21T02:31:28.265Z,64.01
2015-12-21T02:31:40.640Z,63.92
2015-12-21T02:31:53.015Z,64.01
2015-12-21T02:32:05.390Z,63.82
2015-12-21T02:32:17.781Z,64.01
2015-12-21T02:32:30.173Z,64.01
2015-12-21T02:32:42.564Z,64.11
2015-12-21T02:32:54.955Z,63.92
2015-12-21T02:33:07.345Z,64.2
2015-12-21T02:33:19.736Z,63.73
2015-12-21T02:33:32.114Z,64.11
2015-12-21T02:33:44.473Z,63.92
2015-12-21T02:33:56.817Z,63.92
2015-12-21T02:34:08.473Z,63.92
2015-12-21T02:34:20.833Z,63.26
2015-12-21T02:34:33.179Z,63.35
2015-12-21T02:34:45.539Z,63.54
2015-12-21T02:34:57.898Z,63.54
2015-12-21T02:35:10.273Z,63.35
2015-12-21T02:35:22.633Z,63.35
2015-12-21T02:35:35.010Z,63.45
2015-12-21T02:35:47.369Z,63.26
2015-12-21T02:35:59.713Z,63.07
2015-12-21T02:36:12.088Z,63.16
2015-12-21T02:36:24.447Z,62.88
2015-12-21T02:36:36.825Z,62.69
2015-12-21T02:36:49.200Z,62.78
2015-12-21T02:37:01.559Z,62.59
2015-12-21T02:37:13.934Z,62.69
2015-12-21T02:37:26.325Z,62.69
2015-12-21T02:37:38.000Z,62.5
2015-12-21T02:37:50.391Z,62.31
2015-12-21T02:38:02.797Z,62.4
2015-12-21T02:38:15.172Z,62.31
2015-12-21T02:38:27.531Z,62.31
2015-12-21T02:38:39.893Z,62.12
2015-12-21T02:38:52.236Z,62.21
2015-12-21T02:39:04.596Z,61.77
2015-12-21T02:39:16.252Z,61.96
2015-12-21T02:39:28.611Z,61.83
2015-12-21T02:39:40.975Z,61.87
2015-12-21T02:39:53.334Z,61.58
2015-12-21T02:40:05.693Z,61.65
2015-12-21T02:40:18.053Z,61.77